Time;durP1;ratioP1;P1;durP2;ratioP2;P2;SDS_P1;SDS_P2;PMS_P1;PMS_P2;Temp;Humidity;BMP_temperature;BMP_pressure;BME280_temperature;BME280_humidity;BME280_pressure;Samples;Min_cycle;Max_cycle;Signal;HPM_P1;HPM_P2
2021/04/29 00:00:28;;;;;;;5.88;4.38;;;;;;;11.01;100.00;94499.84;1026079;28;20413;-68
2021/04/29 00:00:58;;;;;;;5.40;4.50;;;;;;;10.97;100.00;94493.63;1023479;28;20027;-68
2021/04/29 00:01:28;;;;;;;6.28;4.07;;;;;;;11.02;100.00;94500.63;1023289;29;20093;-69
2021/04/29 00:01:59;;;;;;;6.78;4.50;;;;;;;11.01;100.00;94499.84;1023168;29;20030;-68
2021/04/29 00:02:29;;;;;;;5.88;4.35;;;;;;;10.98;100.00;94495.19;1021190;29;20054;-68
2021/04/29 00:03:00;;;;;;;6.90;4.90;;;;;;;10.94;100.00;94499.47;1019930;28;20554;-68
2021/04/29 00:03:31;;;;;;;5.40;4.35;;;;;;;10.92;100.00;94504.22;1019481;29;20044;-69
2021/04/29 00:04:02;;;;;;;8.13;4.20;;;;;;;10.90;100.00;94495.91;1021940;29;20066;-69
2021/04/29 00:04:33;;;;;;;7.65;4.00;;;;;;;10.91;100.00;94494.81;1019506;29;20381;-69
2021/04/29 00:05:06;;;;;;;5.93;4.28;;;;;;;10.96;100.00;94499.94;1015014;29;20036;-68
2021/04/29 00:05:37;;;;;;;6.75;4.32;;;;;;;10.92;100.00;94495.59;1016127;29;20099;-69
2021/04/29 00:06:07;;;;;;;6.88;4.60;;;;;;;10.87;100.00;94493.84;1012641;29;20807;-68
2021/04/29 00:06:38;;;;;;;5.88;4.53;;;;;;;10.83;100.00;94495.50;1023648;28;20058;-69
2021/04/29 00:07:08;;;;;;;8.18;4.07;;;;;;;10.77;100.00;94489.59;1024796;28;20050;-68
2021/04/29 00:07:39;;;;;;;4.80;3.90;;;;;;;10.85;100.00;94496.00;1022348;28;20035;-68
2021/04/29 00:08:09;;;;;;;6.63;4.55;;;;;;;10.84;100.00;94494.44;1020844;28;20031;-68
2021/04/29 00:08:39;;;;;;;9.50;4.45;;;;;;;10.84;100.00;94499.69;1023177;28;20023;-69
2021/04/29 00:09:10;;;;;;;6.78;4.40;;;;;;;10.83;100.00;94495.50;1026978;28;20041;-68
2021/04/29 00:09:41;;;;;;;5.95;4.38;;;;;;;10.84;100.00;94499.69;1027391;28;20031;-68
2021/04/29 00:10:16;;;;;;;5.13;4.15;;;;;;;10.79;100.00;94491.91;1029662;28;20022;-69
2021/04/29 00:10:47;;;;;;;6.82;4.18;;;;;;;10.79;100.00;94492.69;1029037;28;20615;-68
2021/04/29 00:11:17;;;;;;;6.22;4.75;;;;;;;10.78;100.00;94490.38;1019521;28;20275;-69
2021/04/29 00:11:48;;;;;;;5.53;3.55;;;;;;;10.77;100.00;94491.44;1019886;29;20028;-69
2021/04/29 00:12:18;;;;;;;7.80;4.20;;;;;;;10.80;100.00;94498.72;1019823;28;20116;-69
2021/04/29 00:12:48;;;;;;;5.63;4.32;;;;;;;10.76;100.00;94495.13;1022554;29;20027;-68
2021/04/29 00:13:19;;;;;;;6.78;4.88;;;;;;;10.76;100.00;94495.88;1023655;29;20035;-69
2021/04/29 00:13:49;;;;;;;6.13;4.47;;;;;;;10.75;100.00;94501.44;1015412;29;20067;-67
2021/04/29 00:14:20;;;;;;;7.57;4.70;;;;;;;10.72;100.00;94502.03;1015500;29;20021;-69
2021/04/29 00:14:50;;;;;;;6.22;4.35;;;;;;;10.68;100.00;94486.09;1015343;29;20032;-69
2021/04/29 00:15:21;;;;;;;7.40;4.88;;;;;;;10.72;100.00;94502.81;1022527;28;20031;-68
2021/04/29 00:15:51;;;;;;;8.13;4.78;;;;;;;10.72;100.00;94499.41;1024603;28;20027;-69
2021/04/29 00:16:22;;;;;;;5.72;4.95;;;;;;;10.73;100.00;94503.56;1022838;29;20022;-69
2021/04/29 00:16:52;;;;;;;7.80;4.88;;;;;;;10.72;100.00;94496.78;1023044;29;20027;-69
2021/04/29 00:17:23;;;;;;;10.80;4.80;;;;;;;10.71;100.00;94505.72;1023615;28;20000;-69
2021/04/29 00:17:53;;;;;;;7.45;4.78;;;;;;;10.68;100.00;94495.81;1029156;28;20049;-69
2021/04/29 00:18:24;;;;;;;4.93;4.43;;;;;;;10.68;100.00;94493.97;1026857;28;20025;-69
2021/04/29 00:18:54;;;;;;;9.25;4.80;;;;;;;10.67;100.00;94499.53;1019323;29;20012;-69
2021/04/29 00:19:26;;;;;;;7.10;4.70;;;;;;;10.65;100.00;94491.16;1018938;29;20016;-69
2021/04/29 00:19:57;;;;;;;5.82;4.22;;;;;;;10.66;100.00;94493.47;1023689;29;20008;-68
2021/04/29 00:20:27;;;;;;;7.47;5.13;;;;;;;10.67;100.00;94497.66;1023273;28;20266;-69
2021/04/29 00:20:59;;;;;;;6.03;4.55;;;;;;;10.67;100.00;94505.53;1026833;28;20389;-69
2021/04/29 00:21:29;;;;;;;6.57;4.70;;;;;;;10.66;100.00;94501.34;1026856;28;20019;-68
2021/04/29 00:21:59;;;;;;;5.32;4.18;;;;;;;10.65;100.00;94504.28;1023371;28;20610;-68
2021/04/29 00:22:30;;;;;;;5.95;4.50;;;;;;;10.70;100.00;94485.81;1027037;28;20045;-68
2021/04/29 00:23:00;;;;;;;8.93;4.57;;;;;;;10.69;100.00;94497.38;1021460;28;20023;-69
2021/04/29 00:23:31;;;;;;;7.05;4.78;;;;;;;10.71;100.00;94490.00;1019272;29;20031;-68
2021/04/29 00:24:02;;;;;;;6.65;4.30;;;;;;;10.70;100.00;94499.72;1023551;29;20587;-67
2021/04/29 00:24:32;;;;;;;10.05;4.80;;;;;;;10.72;100.00;94499.41;1022068;29;20030;-67
2021/04/29 00:25:05;;;;;;;7.28;4.40;;;;;;;10.72;100.00;94497.56;1019562;29;20283;-67
2021/04/29 00:25:35;;;;;;;8.20;5.07;;;;;;;10.71;100.00;94490.75;1023905;28;20026;-66
2021/04/29 00:26:06;;;;;;;6.55;4.20;;;;;;;10.73;100.00;94486.00;1022546;28;20262;-69
2021/04/29 00:26:36;;;;;;;6.63;4.78;;;;;;;10.75;100.00;94491.72;1019855;29;20478;-69
2021/04/29 00:27:07;;;;;;;5.65;4.18;;;;;;;10.74;100.00;94494.66;1014180;29;20785;-69
2021/04/29 00:27:37;;;;;;;6.85;4.22;;;;;;;10.73;100.00;94487.84;1017103;28;20027;-68
2021/04/29 00:28:08;;;;;;;5.18;4.35;;;;;;;10.75;100.00;94496.19;1017870;29;20026;-68
2021/04/29 00:28:38;;;;;;;9.20;5.13;;;;;;;10.66;100.00;94476.97;1015515;29;20045;-67
2021/04/29 00:29:09;;;;;;;11.30;4.78;;;;;;;10.76;100.00;94497.75;1019153;29;20095;-69
2021/04/29 00:29:39;;;;;;;7.00;4.40;;;;;;;10.74;100.00;94487.56;1014916;29;20036;-68
2021/04/29 00:30:10;;;;;;;4.15;3.63;;;;;;;10.76;100.00;94492.50;1023406;28;20466;-69
2021/04/29 00:30:41;;;;;;;4.78;3.88;;;;;;;10.78;100.00;94490.38;1023095;29;20019;-68
2021/04/29 00:31:11;;;;;;;7.43;4.50;;;;;;;10.78;100.00;94490.38;1016117;29;20787;-69
2021/04/29 00:31:42;;;;;;;4.65;4.03;;;;;;;10.79;100.00;94491.91;1011841;29;20053;-69
2021/04/29 00:32:12;;;;;;;13.57;5.13;;;;;;;10.78;100.00;94491.13;1016407;29;20024;-68
2021/04/29 00:32:43;;;;;;;8.73;3.97;;;;;;;10.77;100.00;94494.06;1027405;28;20023;-68
2021/04/29 00:33:13;;;;;;;11.20;4.35;;;;;;;10.74;100.00;94489.41;1026445;28;20499;-68
2021/04/29 00:33:44;;;;;;;10.60;4.88;;;;;;;10.74;100.00;94492.03;1027424;28;20424;-69
2021/04/29 00:34:14;;;;;;;4.93;4.32;;;;;;;10.73;100.00;94487.84;1022906;29;20122;-68
2021/04/29 00:34:45;;;;;;;6.28;4.68;;;;;;;10.71;100.00;94487.38;1018535;29;20024;-68
2021/04/29 00:35:15;;;;;;;6.30;4.38;;;;;;;10.71;100.00;94488.13;1022901;28;20034;-67
2021/04/29 00:35:46;;;;;;;9.25;4.40;;;;;;;10.70;100.00;94488.44;1027185;28;20035;-69
2021/04/29 00:36:16;;;;;;;7.20;4.35;;;;;;;10.68;100.00;94491.34;1031303;28;20053;-66
2021/04/29 00:36:47;;;;;;;6.78;4.35;;;;;;;10.68;100.00;94501.84;1030771;28;20092;-69
2021/04/29 00:37:17;;;;;;;6.05;4.63;;;;;;;10.67;100.00;94491.66;1031190;28;20092;-69
2021/04/29 00:37:48;;;;;;;9.57;4.68;;;;;;;10.67;100.00;94489.81;1027253;28;20042;-69
2021/04/29 00:38:18;;;;;;;6.00;4.03;;;;;;;10.66;100.00;94493.47;1026519;28;20034;-68
2021/04/29 00:38:48;;;;;;;5.35;4.20;;;;;;;10.65;100.00;94491.94;1027196;28;20030;-69
2021/04/29 00:39:19;;;;;;;9.82;4.80;;;;;;;10.63;100.00;94494.09;1023735;28;20027;-69
2021/04/29 00:39:49;;;;;;;7.57;4.13;;;;;;;10.51;100.00;94476.22;1027333;28;20026;-69
2021/04/29 00:40:20;;;;;;;7.75;4.43;;;;;;;10.58;100.00;94492.31;1027022;28;20640;-68
2021/04/29 00:40:50;;;;;;;9.50;4.57;;;;;;;10.57;100.00;94485.53;1027263;28;20045;-67
2021/04/29 00:41:21;;;;;;;7.30;4.25;;;;;;;10.57;100.00;94490.00;1027273;28;20023;-69
2021/04/29 00:41:51;;;;;;;5.40;4.28;;;;;;;10.56;100.00;94489.25;1027196;28;20129;-69
2021/04/29 00:42:22;;;;;;;6.10;4.40;;;;;;;10.54;100.00;94491.38;1027303;28;20509;-68
2021/04/29 00:42:52;;;;;;;7.00;4.18;;;;;;;10.54;100.00;94490.59;1027220;28;20428;-69
2021/04/29 00:43:23;;;;;;;5.25;4.35;;;;;;;10.50;100.00;94484.38;1027001;28;20030;-68
2021/04/29 00:43:54;;;;;;;6.30;4.30;;;;;;;10.52;100.00;94485.63;1026997;28;20035;-68
2021/04/29 00:44:24;;;;;;;8.52;4.10;;;;;;;10.52;100.00;94482.22;1023732;28;20019;-68
2021/04/29 00:44:54;;;;;;;10.68;4.57;;;;;;;10.51;100.00;94484.06;1027459;28;20022;-68
2021/04/29 00:45:25;;;;;;;4.13;3.72;;;;;;;10.52;100.00;94487.47;1023612;28;20484;-68
2021/04/29 00:45:55;;;;;;;4.50;4.10;;;;;;;10.52;100.00;94487.47;1023465;28;20038;-66
2021/04/29 00:46:27;;;;;;;8.38;4.60;;;;;;;10.50;100.00;94484.38;1027320;28;20034;-68
2021/04/29 00:46:58;;;;;;;8.77;4.60;;;;;;;10.45;100.00;94477.38;1025325;28;20036;-65
2021/04/29 00:47:28;;;;;;;7.20;4.63;;;;;;;10.49;100.00;94488.81;1019716;29;20287;-68
2021/04/29 00:47:59;;;;;;;5.72;4.50;;;;;;;10.49;100.00;94488.06;1011432;29;20020;-68
2021/04/29 00:48:29;;;;;;;5.53;4.40;;;;;;;10.50;100.00;94487.00;1010814;29;20105;-68
2021/04/29 00:49:00;;;;;;;4.78;3.92;;;;;;;10.52;100.00;94488.25;1007555;29;20032;-69
2021/04/29 00:49:30;;;;;;;6.13;3.80;;;;;;;10.32;100.00;94455.31;1019562;28;20421;-68
2021/04/29 00:50:02;;;;;;;6.50;4.15;;;;;;;10.52;100.00;94480.38;1026221;28;20041;-68
2021/04/29 00:50:33;;;;;;;7.22;4.38;;;;;;;10.55;100.00;94487.66;1024788;28;20519;-68
2021/04/29 00:51:04;;;;;;;5.85;3.88;;;;;;;10.57;100.00;94490.00;1020816;29;20302;-68
2021/04/29 00:51:34;;;;;;;5.25;3.97;;;;;;;10.58;100.00;94487.06;1016115;29;20040;-68
2021/04/29 00:52:05;;;;;;;4.10;3.58;;;;;;;10.60;100.00;94489.44;1018975;29;20040;-68
2021/04/29 00:52:35;;;;;;;4.20;3.70;;;;;;;10.59;100.00;94483.38;1002999;28;609132;-68
2021/04/29 00:53:06;;;;;;;5.20;4.30;;;;;;;10.60;100.00;94490.19;1028110;28;20027;-68
2021/04/29 00:53:39;;;;;;;5.05;4.00;;;;;;;10.60;100.00;94484.94;1027051;28;20027;-68
2021/04/29 00:54:09;;;;;;;7.38;4.00;;;;;;;10.60;100.00;94486.81;1027068;28;20015;-68
2021/04/29 00:54:40;;;;;;;5.25;3.90;;;;;;;10.51;100.00;94481.44;1028027;28;20677;-68
2021/04/29 00:55:10;;;;;;;9.35;3.95;;;;;;;10.59;100.00;94493.88;1030696;28;20033;-68
2021/04/29 00:55:41;;;;;;;5.80;4.25;;;;;;;10.61;100.00;94491.75;1017171;29;20398;-68
2021/04/29 00:56:11;;;;;;;6.13;4.25;;;;;;;10.61;100.00;94491.75;1015364;29;20490;-69
2021/04/29 00:56:42;;;;;;;4.38;3.80;;;;;;;10.67;100.00;94496.91;1015996;29;20036;-68
2021/04/29 00:57:12;;;;;;;4.43;4.00;;;;;;;10.67;100.00;94495.06;1025653;28;20034;-68
2021/04/29 00:57:43;;;;;;;4.75;4.22;;;;;;;10.67;100.00;94496.91;1031591;28;20479;-68
2021/04/29 00:58:13;;;;;;;4.35;3.92;;;;;;;10.70;100.00;94491.84;1031547;28;20034;-69
2021/04/29 00:58:43;;;;;;;4.20;3.80;;;;;;;10.71;100.00;94501.25;1026088;28;20074;-66
2021/04/29 00:59:14;;;;;;;7.57;4.15;;;;;;;10.68;100.00;94493.19;1023218;28;20034;-69
2021/04/29 00:59:44;;;;;;;5.72;4.25;;;;;;;10.61;100.00;94491.75;1027803;28;20038;-69
2021/04/29 01:00:15;;;;;;;6.70;4.25;;;;;;;10.70;100.00;94504.19;1023295;28;20023;-69
2021/04/29 01:00:46;;;;;;;5.75;4.20;;;;;;;10.67;100.00;94499.53;1022988;29;20119;-68
2021/04/29 01:01:16;;;;;;;5.05;3.97;;;;;;;10.70;100.00;94502.34;1015815;29;20028;-68
2021/04/29 01:01:47;;;;;;;6.93;4.10;;;;;;;10.70;100.00;94501.56;1019904;28;20040;-68
2021/04/29 01:02:17;;;;;;;5.40;4.20;;;;;;;10.72;100.00;94512.53;1030653;28;20030;-68
2021/04/29 01:02:53;;;;;;;5.93;4.35;;;;;;;10.66;100.00;94492.69;1023425;29;20083;-68
2021/04/29 01:03:29;;;;;;;12.13;4.82;;;;;;;10.70;100.00;94494.47;1019548;29;20034;-68
2021/04/29 01:04:22;;;;;;;6.80;4.75;;;;;;;10.70;100.00;94504.19;1006038;29;20662;-68
2021/04/29 01:04:59;;;;;;;6.80;4.72;;;;;;;10.67;100.00;94508.16;1011799;29;21115;-68
2021/04/29 01:05:36;;;;;;;6.80;4.72;;;;;;;10.65;100.00;94501.66;1019422;28;20283;-68
2021/04/29 01:06:13;;;;;;;8.30;4.90;;;;;;;10.66;100.00;94497.94;1015577;29;20272;-69
2021/04/29 01:06:47;;;;;;;5.82;4.72;;;;;;;10.68;100.00;94501.84;1011779;29;20304;-68
2021/04/29 01:07:17;;;;;;;6.90;4.32;;;;;;;10.64;100.00;94492.25;1024584;28;20291;-66
2021/04/29 01:08:06;;;;;;;6.38;5.03;;;;;;;10.65;100.00;94496.41;1031492;28;20261;-68
2021/04/29 01:08:45;;;;;;;6.53;4.72;;;;;;;10.65;100.00;94504.28;1020422;29;20075;-68
2021/04/29 01:09:31;;;;;;;9.65;4.38;;;;;;;10.72;100.00;94508.06;1019381;29;20745;-67
2021/04/29 01:10:06;;;;;;;5.18;4.35;;;;;;;10.73;100.00;94501.75;1031284;28;20336;-68
2021/04/29 01:11:01;;;;;;;7.05;4.40;;;;;;;10.70;100.00;94504.97;1028588;28;20707;-69
2021/04/29 01:11:33;;;;;;;7.13;4.45;;;;;;;10.66;100.00;94505.81;1020645;28;20275;-66
2021/04/29 01:12:18;;;;;;;5.65;4.15;;;;;;;10.65;100.00;94507.66;1023749;29;20267;-68
2021/04/29 01:12:53;;;;;;;5.05;4.55;;;;;;;10.66;100.00;94503.19;1028211;28;20333;-68
2021/04/29 01:13:25;;;;;;;6.43;4.85;;;;;;;10.62;100.00;94503.78;1031207;28;20269;-71
2021/04/29 01:13:56;;;;;;;5.93;4.30;;;;;;;10.56;100.00;94497.09;1026081;28;20341;-68
2021/04/29 01:14:27;;;;;;;6.90;4.35;;;;;;;10.54;100.00;94499.22;1014351;29;20276;-68
2021/04/29 01:14:58;;;;;;;5.88;4.47;;;;;;;10.61;100.00;94512.72;1027087;28;20270;-68
2021/04/29 01:15:28;;;;;;;5.82;4.10;;;;;;;10.62;100.00;94518.75;1026570;28;20033;-68
2021/04/29 01:15:59;;;;;;;7.80;4.30;;;;;;;10.61;100.00;94517.19;1024728;28;20406;-69
2021/04/29 01:16:30;;;;;;;5.03;4.53;;;;;;;10.57;100.00;94514.38;1019429;29;20082;-68
2021/04/29 01:17:01;;;;;;;6.30;3.85;;;;;;;10.57;100.00;94511.75;1019699;28;20306;-68
2021/04/29 01:17:31;;;;;;;9.25;4.50;;;;;;;10.56;100.00;94510.22;1027636;28;20022;-69
2021/04/29 01:18:02;;;;;;;4.90;4.18;;;;;;;10.50;100.00;94506.13;1023104;29;20098;-68
2021/04/29 01:18:32;;;;;;;4.82;4.07;;;;;;;10.52;100.00;94509.22;1023254;29;20142;-68
2021/04/29 01:19:03;;;;;;;5.53;4.20;;;;;;;10.43;100.00;94500.50;1015493;29;20024;-67
2021/04/29 01:19:42;;;;;;;5.55;4.30;;;;;;;10.48;100.00;94512.72;1017906;29;20026;-69
2021/04/29 01:20:14;;;;;;;8.02;4.40;;;;;;;10.40;100.00;94511.56;1013046;29;20380;-68
2021/04/29 01:20:49;;;;;;;4.80;4.00;;;;;;;10.45;100.00;94518.56;1015654;29;20268;-69
2021/04/29 01:21:20;;;;;;;6.55;4.30;;;;;;;10.31;100.00;94493.09;1020933;29;20661;-69
2021/04/29 01:21:50;;;;;;;5.05;4.45;;;;;;;10.44;100.00;94506.53;1032451;28;20262;-68
2021/04/29 01:22:21;;;;;;;5.00;4.00;;;;;;;10.48;100.00;94516.13;1028149;28;20065;-69
2021/04/29 01:22:58;;;;;;;4.60;4.05;;;;;;;10.49;100.00;94509.81;1027527;28;20023;-68
2021/04/29 01:23:41;;;;;;;6.43;4.00;;;;;;;10.48;100.00;94515.34;1020895;29;20106;-69
2021/04/29 01:24:14;;;;;;;5.85;4.40;;;;;;;10.47;100.00;94511.97;1021454;28;20252;-68
2021/04/29 01:24:52;;;;;;;6.78;4.30;;;;;;;10.46;100.00;94507.00;1030813;28;20253;-68
2021/04/29 01:25:23;;;;;;;6.25;4.10;;;;;;;10.40;100.00;94505.56;1025583;28;20306;-68
2021/04/29 01:25:56;;;;;;;5.72;4.40;;;;;;;10.39;100.00;94517.88;1026859;28;20286;-68
2021/04/29 01:26:31;;;;;;;5.13;4.45;;;;;;;10.37;100.00;94512.16;1013215;29;20490;-68
2021/04/29 01:27:02;;;;;;;6.68;4.00;;;;;;;10.34;100.00;94513.50;1014161;29;20257;-69
2021/04/29 01:27:33;;;;;;;4.35;3.95;;;;;;;10.35;100.00;94519.53;1014979;29;20279;-66
2021/04/29 01:28:03;;;;;;;6.22;4.50;;;;;;;10.23;100.00;94500.84;1020472;28;20263;-69
2021/04/29 01:28:34;;;;;;;6.57;4.50;;;;;;;10.32;100.00;94512.22;1023611;29;20024;-68
2021/04/29 01:29:07;;;;;;;6.22;4.63;;;;;;;10.30;100.00;94511.75;1019502;29;20522;-68
2021/04/29 01:29:37;;;;;;;6.28;3.88;;;;;;;10.30;100.00;94512.53;1023529;28;20481;-69
2021/04/29 01:30:10;;;;;;;6.68;4.40;;;;;;;10.30;100.00;94514.38;1026798;28;20258;-69
2021/04/29 01:30:41;;;;;;;7.07;4.80;;;;;;;10.28;100.00;94513.88;1019445;29;20115;-69
2021/04/29 01:31:11;;;;;;;6.10;4.07;;;;;;;10.28;100.00;94508.66;1019866;29;20254;-69
2021/04/29 01:31:43;;;;;;;4.82;3.92;;;;;;;10.33;100.00;94508.56;1022366;29;20016;-68
2021/04/29 01:32:13;;;;;;;6.22;4.32;;;;;;;10.33;100.00;94513.81;1019528;29;20501;-68
2021/04/29 01:32:44;;;;;;;7.00;4.55;;;;;;;10.31;100.00;94510.69;1024129;28;20256;-69
2021/04/29 01:33:14;;;;;;;4.80;4.40;;;;;;;10.28;100.00;94506.03;1021467;29;20031;-68
2021/04/29 01:33:45;;;;;;;5.07;4.18;;;;;;;10.28;100.00;94508.66;1019523;29;20267;-69
2021/04/29 01:34:17;;;;;;;6.57;4.57;;;;;;;10.30;100.00;94511.75;1015360;29;20039;-68
2021/04/29 01:34:47;;;;;;;8.77;4.80;;;;;;;10.14;100.00;94491.03;1025641;28;20022;-69
2021/04/29 01:35:18;;;;;;;7.78;4.63;;;;;;;10.24;100.00;94516.28;1011183;29;20257;-68
2021/04/29 01:35:48;;;;;;;5.80;4.63;;;;;;;10.11;100.00;94490.84;1011363;29;20021;-69
2021/04/29 01:36:19;;;;;;;5.70;4.25;;;;;;;10.23;100.00;94508.69;1021552;29;20039;-69
2021/04/29 01:36:50;;;;;;;5.03;4.30;;;;;;;10.23;100.00;94509.50;1026750;28;20027;-69
2021/04/29 01:37:21;;;;;;;7.32;4.18;;;;;;;10.22;100.00;94515.00;1027035;28;20345;-68
2021/04/29 01:37:51;;;;;;;4.63;3.90;;;;;;;10.15;100.00;94497.81;1019401;29;20379;-69
2021/04/29 01:38:22;;;;;;;5.15;4.03;;;;;;;10.23;100.00;94506.06;1015030;29;20036;-68
2021/04/29 01:38:52;;;;;;;5.97;3.50;;;;;;;10.27;100.00;94512.34;1023131;29;20468;-68
2021/04/29 01:39:23;;;;;;;5.40;3.50;;;;;;;10.26;100.00;94508.94;1027524;28;20050;-68
2021/04/29 01:39:53;;;;;;;5.32;3.83;;;;;;;10.29;100.00;94510.19;1019032;29;20023;-68
2021/04/29 01:40:24;;;;;;;4.60;3.60;;;;;;;10.32;100.00;94510.38;1015336;29;20024;-66
2021/04/29 01:40:54;;;;;;;5.75;4.18;;;;;;;10.35;100.00;94506.41;1019564;29;20120;-68
2021/04/29 01:41:25;;;;;;;4.13;3.63;;;;;;;10.31;100.00;94502.81;1015388;29;20376;-69
2021/04/29 01:41:55;;;;;;;5.53;3.72;;;;;;;10.32;100.00;94494.66;1014972;29;20047;-68
2021/04/29 01:42:26;;;;;;;4.35;3.70;;;;;;;10.34;100.00;94504.88;1019254;29;20103;-68
2021/04/29 01:42:57;;;;;;;4.13;3.70;;;;;;;10.34;100.00;94504.88;1015223;29;20127;-68
2021/04/29 01:43:27;;;;;;;6.07;3.42;;;;;;;10.32;100.00;94505.16;1014216;29;20036;-67
2021/04/29 01:43:58;;;;;;;3.80;3.35;;;;;;;10.39;100.00;94507.38;1008322;29;20436;-67
2021/04/29 01:44:28;;;;;;;4.40;3.85;;;;;;;10.37;100.00;94501.66;1020225;29;20039;-68
2021/04/29 01:44:59;;;;;;;6.80;3.90;;;;;;;10.35;100.00;94507.19;1022958;29;20059;-68
2021/04/29 01:45:29;;;;;;;4.18;3.78;;;;;;;10.34;100.00;94510.88;1022037;29;20046;-68
2021/04/29 01:46:03;;;;;;;6.40;3.83;;;;;;;10.34;100.00;94510.09;1019246;29;20083;-68
2021/04/29 01:46:34;;;;;;;5.10;3.92;;;;;;;10.33;100.00;94505.94;1015233;29;20107;-68
2021/04/29 01:47:04;;;;;;;4.68;3.63;;;;;;;10.33;100.00;94508.56;1018453;29;20348;-68
2021/04/29 01:47:35;;;;;;;4.57;3.70;;;;;;;10.32;100.00;94504.38;1019244;29;20071;-67
2021/04/29 01:48:05;;;;;;;4.70;3.70;;;;;;;10.36;100.00;94515.81;1018920;29;20087;-68
2021/04/29 01:48:36;;;;;;;4.30;3.55;;;;;;;10.38;100.00;94514.47;1017742;28;20023;-69
2021/04/29 01:49:08;;;;;;;4.20;3.45;;;;;;;10.39;100.00;94512.63;1023120;29;20026;-69
2021/04/29 01:49:39;;;;;;;4.30;3.60;;;;;;;10.41;100.00;94513.13;1027135;28;20035;-69
2021/04/29 01:50:12;;;;;;;6.38;3.65;;;;;;;10.40;100.00;94510.81;1026268;28;20365;-68
2021/04/29 01:50:43;;;;;;;3.65;3.28;;;;;;;10.43;100.00;94513.63;1022374;29;20270;-69
2021/04/29 01:51:13;;;;;;;5.60;3.80;;;;;;;10.45;100.00;94514.09;1011130;29;20265;-69
2021/04/29 01:51:44;;;;;;;5.47;3.90;;;;;;;10.45;100.00;94511.47;1011515;29;20025;-69
2021/04/29 01:52:14;;;;;;;8.95;3.70;;;;;;;10.44;100.00;94517.78;1018863;29;20067;-69
2021/04/29 01:52:45;;;;;;;4.03;3.63;;;;;;;10.41;100.00;94502.63;1019279;29;20031;-69
2021/04/29 01:53:15;;;;;;;6.25;3.50;;;;;;;10.44;100.00;94507.28;1023165;28;20082;-68
2021/04/29 01:53:46;;;;;;;5.85;3.50;;;;;;;10.44;100.00;94506.53;1022820;29;20019;-67
2021/04/29 01:54:17;;;;;;;3.47;3.17;;;;;;;10.45;100.00;94508.84;1019562;29;20036;-69
2021/04/29 01:54:47;;;;;;;5.05;3.47;;;;;;;10.48;100.00;94513.50;1019074;29;20032;-69
2021/04/29 01:55:17;;;;;;;4.47;3.80;;;;;;;10.39;100.00;94496.88;1017835;28;20027;-70
2021/04/29 01:55:48;;;;;;;4.13;3.50;;;;;;;10.45;100.00;94506.22;1019172;29;20031;-69
2021/04/29 01:56:19;;;;;;;5.47;3.72;;;;;;;10.45;100.00;94505.44;1011300;29;20020;-70
2021/04/29 01:56:49;;;;;;;6.45;3.97;;;;;;;10.49;100.00;94509.81;1018684;29;20077;-66
2021/04/29 01:57:20;;;;;;;5.80;3.70;;;;;;;10.49;100.00;94509.81;1023311;29;20031;-69
2021/04/29 01:57:52;;;;;;;7.00;3.90;;;;;;;10.46;100.00;94513.03;1022992;29;20031;-69
2021/04/29 01:58:23;;;;;;;5.80;3.88;;;;;;;10.46;100.00;94515.66;1015604;29;20283;-70
2021/04/29 01:58:53;;;;;;;7.25;4.03;;;;;;;10.45;100.00;94508.84;1014130;29;20762;-69
2021/04/29 01:59:24;;;;;;;4.93;3.40;;;;;;;10.45;100.00;94514.09;1019058;29;20030;-69
2021/04/29 01:59:55;;;;;;;5.18;3.42;;;;;;;10.43;100.00;94508.38;1023541;29;20034;-69
2021/04/29 02:00:25;;;;;;;4.57;3.40;;;;;;;10.37;100.00;94504.28;1025848;28;20660;-69
2021/04/29 02:00:55;;;;;;;3.90;3.50;;;;;;;10.39;100.00;94507.38;1027021;28;20077;-70
2021/04/29 02:01:26;;;;;;;4.40;3.70;;;;;;;10.43;100.00;94515.44;1023719;29;20055;-69
2021/04/29 02:01:57;;;;;;;6.10;3.65;;;;;;;10.43;100.00;94511.00;1028138;28;20023;-69
2021/04/29 02:02:27;;;;;;;3.72;3.42;;;;;;;10.40;100.00;94505.56;1025243;28;20561;-70
2021/04/29 02:03:00;;;;;;;5.75;3.83;;;;;;;10.42;100.00;94514.66;1024197;28;20057;-68
2021/04/29 02:03:31;;;;;;;5.13;3.60;;;;;;;10.42;100.00;94519.91;1023074;29;20046;-69
2021/04/29 02:04:01;;;;;;;4.35;3.45;;;;;;;10.41;100.00;94523.59;1018958;29;20267;-68
2021/04/29 02:04:32;;;;;;;5.70;3.80;;;;;;;10.40;100.00;94511.56;1019618;29;20051;-69
2021/04/29 02:05:03;;;;;;;6.47;4.05;;;;;;;10.40;100.00;94510.81;1022562;29;20074;-66
2021/04/29 02:05:34;;;;;;;6.07;3.40;;;;;;;10.38;100.00;94514.47;1028907;28;20035;-69
2021/04/29 02:06:04;;;;;;;4.28;3.55;;;;;;;10.37;100.00;94515.56;1035078;28;20257;-66
2021/04/29 02:06:39;;;;;;;6.38;3.88;;;;;;;10.40;100.00;94511.56;1031575;28;20034;-69
2021/04/29 02:07:10;;;;;;;8.23;3.50;;;;;;;10.40;100.00;94516.81;1025695;28;20699;-66
2021/04/29 02:07:40;;;;;;;4.35;3.42;;;;;;;10.39;100.00;94512.63;1021626;29;20259;-69
2021/04/29 02:08:10;;;;;;;4.07;3.63;;;;;;;10.41;100.00;94515.75;1020024;29;20031;-69
2021/04/29 02:08:41;;;;;;;5.07;3.75;;;;;;;10.41;100.00;94518.38;1019237;29;20024;-69
2021/04/29 02:09:12;;;;;;;4.82;3.67;;;;;;;10.37;100.00;94510.31;1026055;28;20035;-69
2021/04/29 02:09:42;;;;;;;3.97;3.50;;;;;;;10.40;100.00;94522.06;1023233;29;20028;-69
2021/04/29 02:10:14;;;;;;;5.05;3.33;;;;;;;10.38;100.00;94516.31;1023198;28;20489;-69
2021/04/29 02:10:47;;;;;;;8.00;3.63;;;;;;;10.38;100.00;94518.94;1019166;29;20494;-69
2021/04/29 02:11:17;;;;;;;4.53;4.03;;;;;;;10.40;100.00;94522.06;1015400;29;20280;-69
2021/04/29 02:12:00;;;;;;;4.25;3.70;;;;;;;10.37;100.00;94517.41;1019223;29;20271;-70
2021/04/29 02:12:32;;;;;;;6.45;3.47;;;;;;;10.38;100.00;94519.72;1016842;29;20087;-66
2021/04/29 02:13:07;;;;;;;3.75;3.40;;;;;;;10.34;100.00;94512.72;1024616;28;20266;-69
2021/04/29 02:13:38;;;;;;;4.10;3.70;;;;;;;10.35;100.00;94515.06;1019456;29;20267;-68
2021/04/29 02:14:09;;;;;;;3.72;3.40;;;;;;;10.30;100.00;94511.75;1015049;29;20267;-69
2021/04/29 02:14:51;;;;;;;8.75;3.80;;;;;;;10.39;100.00;94525.72;1011555;29;20343;-67
2021/04/29 02:15:28;;;;;;;4.10;3.20;;;;;;;10.37;100.00;94520.78;1019885;28;20767;-69
2021/04/29 02:16:06;;;;;;;5.20;3.58;;;;;;;10.36;100.00;94521.88;1020224;29;20280;-70
2021/04/29 02:16:41;;;;;;;5.75;3.13;;;;;;;10.35;100.00;94522.91;1015280;29;20272;-69
2021/04/29 02:17:28;;;;;;;4.60;3.45;;;;;;;10.37;100.00;94517.41;1011247;29;20276;-68
2021/04/29 02:18:05;;;;;;;4.03;3.60;;;;;;;10.33;100.00;94519.06;1021144;28;20271;-68
2021/04/29 02:18:35;;;;;;;4.45;3.80;;;;;;;10.32;100.00;94515.63;1030744;28;20269;-69
2021/04/29 02:19:06;;;;;;;4.47;3.67;;;;;;;10.33;100.00;94519.06;1025967;28;20778;-68
2021/04/29 02:19:39;;;;;;;5.15;3.60;;;;;;;10.35;100.00;94522.16;1009271;29;20115;-69
2021/04/29 02:20:11;;;;;;;6.07;3.50;;;;;;;10.36;100.00;94521.06;1011911;29;20021;-69
2021/04/29 02:20:42;;;;;;;5.25;3.10;;;;;;;10.36;100.00;94521.06;1013015;29;20276;-68
2021/04/29 02:21:17;;;;;;;5.07;3.60;;;;;;;10.32;100.00;94513.00;1025103;28;20291;-68
2021/04/29 02:21:47;;;;;;;8.48;4.00;;;;;;;10.26;100.00;94510.78;1030470;28;20961;-69
2021/04/29 02:22:18;;;;;;;4.57;3.70;;;;;;;10.31;100.00;94519.31;1027148;28;20381;-68
2021/04/29 02:22:48;;;;;;;4.50;3.15;;;;;;;10.32;100.00;94520.09;1022155;29;20015;-66
2021/04/29 02:23:20;;;;;;;4.07;3.10;;;;;;;10.31;100.00;94516.72;1027013;28;20027;-69
2021/04/29 02:23:51;;;;;;;5.45;3.50;;;;;;;10.31;100.00;94523.78;1022848;29;20023;-69
2021/04/29 02:24:21;;;;;;;5.50;3.97;;;;;;;10.31;100.00;94518.56;1011454;29;20755;-68
2021/04/29 02:24:54;;;;;;;4.30;3.70;;;;;;;10.31;100.00;94514.09;1014804;29;20104;-69
2021/04/29 02:25:27;;;;;;;3.30;3.00;;;;;;;10.30;100.00;94517.00;1018023;29;20028;-68
2021/04/29 02:25:57;;;;;;;6.60;3.50;;;;;;;10.30;100.00;94517.00;1022686;28;20263;-69
2021/04/29 02:26:28;;;;;;;6.25;3.97;;;;;;;10.31;100.00;94519.31;1018882;29;20278;-67
2021/04/29 02:26:58;;;;;;;3.55;3.15;;;;;;;10.27;100.00;94520.22;1015337;29;20024;-69
2021/04/29 02:27:29;;;;;;;3.80;3.40;;;;;;;10.08;100.00;94497.44;1015060;29;20557;-67